sensor_id;sensor_type;location;lat;lon;timestamp;P1;durP1;ratioP1;P2;durP2;ratioP2
46322;SDS011;32044;52.386;13.278;2022-08-30T00:01:13;2.30;;;2.10;;
46322;SDS011;32044;52.386;13.278;2022-08-30T00:03:45;2.38;;;2.17;;
46322;SDS011;32044;52.386;13.278;2022-08-30T00:06:11;2.72;;;2.25;;
46322;SDS011;32044;52.386;13.278;2022-08-30T00:08:38;2.80;;;2.47;;
46322;SDS011;32044;52.386;13.278;2022-08-30T00:11:05;2.90;;;2.30;;
46322;SDS011;32044;52.386;13.278;2022-08-30T00:13:33;3.58;;;2.30;;
46322;SDS011;32044;52.386;13.278;2022-08-30T00:15:59;3.38;;;2.40;;
46322;SDS011;32044;52.386;13.278;2022-08-30T00:18:24;4.15;;;2.47;;
46322;SDS011;32044;52.386;13.278;2022-08-30T00:20:50;3.33;;;3.03;;
46322;SDS011;32044;52.386;13.278;2022-08-30T00:23:16;3.10;;;2.78;;
46322;SDS011;32044;52.386;13.278;2022-08-30T00:25:42;3.03;;;2.80;;
46322;SDS011;32044;52.386;13.278;2022-08-30T00:28:08;4.00;;;2.42;;
46322;SDS011;32044;52.386;13.278;2022-08-30T00:30:35;2.45;;;2.25;;
46322;SDS011;32044;52.386;13.278;2022-08-30T00:33:00;2.50;;;2.30;;
46322;SDS011;32044;52.386;13.278;2022-08-30T00:35:26;2.83;;;2.63;;
46322;SDS011;32044;52.386;13.278;2022-08-30T00:37:51;2.70;;;2.08;;
46322;SDS011;32044;52.386;13.278;2022-08-30T00:40:17;2.35;;;2.05;;
46322;SDS011;32044;52.386;13.278;2022-08-30T00:42:44;1.88;;;1.77;;
46322;SDS011;32044;52.386;13.278;2022-08-30T00:45:14;2.60;;;2.30;;
46322;SDS011;32044;52.386;13.278;2022-08-30T00:47:48;2.25;;;2.08;;
46322;SDS011;32044;52.386;13.278;2022-08-30T00:50:15;2.50;;;2.30;;
46322;SDS011;32044;52.386;13.278;2022-08-30T00:52:44;4.20;;;2.55;;
46322;SDS011;32044;52.386;13.278;2022-08-30T00:55:11;2.45;;;2.25;;
46322;SDS011;32044;52.386;13.278;2022-08-30T00:57:38;2.50;;;2.30;;
46322;SDS011;32044;52.386;13.278;2022-08-30T01:00:04;2.20;;;2.08;;
46322;SDS011;32044;52.386;13.278;2022-08-30T01:02:30;2.20;;;2.00;;
46322;SDS011;32044;52.386;13.278;2022-08-30T01:04:57;2.00;;;1.90;;
46322;SDS011;32044;52.386;13.278;2022-08-30T01:07:23;1.90;;;1.80;;
46322;SDS011;32044;52.386;13.278;2022-08-30T01:09:49;2.28;;;2.08;;
46322;SDS011;32044;52.386;13.278;2022-08-30T01:12:14;2.17;;;1.98;;
46322;SDS011;32044;52.386;13.278;2022-08-30T01:14:39;2.78;;;1.90;;
46322;SDS011;32044;52.386;13.278;2022-08-30T01:17:05;2.35;;;2.15;;
46322;SDS011;32044;52.386;13.278;2022-08-30T01:19:41;2.97;;;2.28;;
46322;SDS011;32044;52.386;13.278;2022-08-30T01:22:22;2.42;;;2.25;;
46322;SDS011;32044;52.386;13.278;2022-08-30T01:24:55;2.17;;;1.98;;
46322;SDS011;32044;52.386;13.278;2022-08-30T01:27:22;3.85;;;2.30;;
46322;SDS011;32044;52.386;13.278;2022-08-30T01:29:48;3.90;;;2.35;;
46322;SDS011;32044;52.386;13.278;2022-08-30T01:32:23;2.70;;;2.50;;
46322;SDS011;32044;52.386;13.278;2022-08-30T01:34:49;2.55;;;2.35;;
46322;SDS011;32044;52.386;13.278;2022-08-30T01:37:16;3.90;;;2.80;;
46322;SDS011;32044;52.386;13.278;2022-08-30T01:39:45;2.53;;;2.33;;
46322;SDS011;32044;52.386;13.278;2022-08-30T01:42:10;3.95;;;2.40;;
46322;SDS011;32044;52.386;13.278;2022-08-30T01:44:36;2.42;;;2.22;;
46322;SDS011;32044;52.386;13.278;2022-08-30T01:47:02;2.30;;;2.10;;
46322;SDS011;32044;52.386;13.278;2022-08-30T01:49:27;2.35;;;2.15;;
46322;SDS011;32044;52.386;13.278;2022-08-30T01:51:52;3.83;;;2.38;;
46322;SDS011;32044;52.386;13.278;2022-08-30T01:54:18;3.92;;;2.17;;
46322;SDS011;32044;52.386;13.278;2022-08-30T01:56:43;2.63;;;2.42;;
46322;SDS011;32044;52.386;13.278;2022-08-30T01:59:08;2.30;;;2.10;;
46322;SDS011;32044;52.386;13.278;2022-08-30T02:01:34;2.90;;;2.60;;
46322;SDS011;32044;52.386;13.278;2022-08-30T02:04:01;2.50;;;2.30;;
46322;SDS011;32044;52.386;13.278;2022-08-30T02:06:26;1.90;;;1.80;;
46322;SDS011;32044;52.386;13.278;2022-08-30T02:08:52;2.30;;;2.10;;
46322;SDS011;32044;52.386;13.278;2022-08-30T02:11:17;2.75;;;2.55;;
46322;SDS011;32044;52.386;13.278;2022-08-30T02:13:43;3.38;;;2.85;;
46322;SDS011;32044;52.386;13.278;2022-08-30T02:16:10;3.20;;;2.90;;
46322;SDS011;32044;52.386;13.278;2022-08-30T02:18:37;2.85;;;2.60;;
46322;SDS011;32044;52.386;13.278;2022-08-30T02:21:03;2.30;;;2.10;;
46322;SDS011;32044;52.386;13.278;2022-08-30T02:23:29;2.25;;;2.05;;
46322;SDS011;32044;52.386;13.278;2022-08-30T02:25:55;2.20;;;2.00;;
46322;SDS011;32044;52.386;13.278;2022-08-30T02:28:20;2.45;;;2.25;;
46322;SDS011;32044;52.386;13.278;2022-08-30T02:30:46;2.30;;;2.10;;
46322;SDS011;32044;52.386;13.278;2022-08-30T02:33:11;1.90;;;1.80;;
46322;SDS011;32044;52.386;13.278;2022-08-30T02:35:37;2.80;;;2.58;;
46322;SDS011;32044;52.386;13.278;2022-08-30T02:38:03;2.53;;;2.33;;
46322;SDS011;32044;52.386;13.278;2022-08-30T02:40:28;2.85;;;2.55;;
46322;SDS011;32044;52.386;13.278;2022-08-30T02:42:53;4.25;;;3.08;;
46322;SDS011;32044;52.386;13.278;2022-08-30T02:45:19;2.97;;;2.67;;
46322;SDS011;32044;52.386;13.278;2022-08-30T02:47:44;2.53;;;2.30;;
46322;SDS011;32044;52.386;13.278;2022-08-30T02:50:09;2.80;;;2.53;;
46322;SDS011;32044;52.386;13.278;2022-08-30T02:52:35;2.90;;;2.55;;
46322;SDS011;32044;52.386;13.278;2022-08-30T02:55:01;2.55;;;2.30;;
46322;SDS011;32044;52.386;13.278;2022-08-30T02:57:27;3.00;;;2.65;;
46322;SDS011;32044;52.386;13.278;2022-08-30T02:59:53;2.75;;;2.50;;
46322;SDS011;32044;52.386;13.278;2022-08-30T03:02:18;3.10;;;2.80;;
46322;SDS011;32044;52.386;13.278;2022-08-30T03:04:43;5.13;;;2.40;;
46322;SDS011;32044;52.386;13.278;2022-08-30T03:07:09;2.58;;;2.38;;
46322;SDS011;32044;52.386;13.278;2022-08-30T03:09:36;2.45;;;2.25;;
46322;SDS011;32044;52.386;13.278;2022-08-30T03:12:01;2.53;;;2.33;;
46322;SDS011;32044;52.386;13.278;2022-08-30T03:14:28;2.38;;;2.17;;
46322;SDS011;32044;52.386;13.278;2022-08-30T03:16:54;2.10;;;1.90;;
46322;SDS011;32044;52.386;13.278;2022-08-30T03:19:19;2.15;;;1.98;;
46322;SDS011;32044;52.386;13.278;2022-08-30T03:21:44;2.60;;;2.40;;
46322;SDS011;32044;52.386;13.278;2022-08-30T03:24:10;2.47;;;2.25;;
46322;SDS011;32044;52.386;13.278;2022-08-30T03:26:36;2.00;;;1.90;;
46322;SDS011;32044;52.386;13.278;2022-08-30T03:29:01;2.33;;;2.10;;
46322;SDS011;32044;52.386;13.278;2022-08-30T03:31:26;2.88;;;2.20;;
46322;SDS011;32044;52.386;13.278;2022-08-30T03:33:52;3.60;;;2.28;;
46322;SDS011;32044;52.386;13.278;2022-08-30T03:36:18;2.85;;;2.63;;
46322;SDS011;32044;52.386;13.278;2022-08-30T03:38:44;2.47;;;2.28;;
46322;SDS011;32044;52.386;13.278;2022-08-30T03:41:09;2.70;;;2.50;;
46322;SDS011;32044;52.386;13.278;2022-08-30T03:43:35;2.92;;;2.10;;
46322;SDS011;32044;52.386;13.278;2022-08-30T03:46:00;3.00;;;2.70;;
46322;SDS011;32044;52.386;13.278;2022-08-30T03:48:27;2.78;;;2.58;;
46322;SDS011;32044;52.386;13.278;2022-08-30T03:50:52;4.00;;;3.17;;
46322;SDS011;32044;52.386;13.278;2022-08-30T03:53:18;5.15;;;3.83;;
46322;SDS011;32044;52.386;13.278;2022-08-30T03:55:43;3.95;;;3.53;;
46322;SDS011;32044;52.386;13.278;2022-08-30T03:58:08;3.60;;;3.25;;
46322;SDS011;32044;52.386;13.278;2022-08-30T04:00:34;3.05;;;2.80;;
46322;SDS011;32044;52.386;13.278;2022-08-30T04:02:59;2.90;;;2.67;;
46322;SDS011;32044;52.386;13.278;2022-08-30T04:05:24;3.35;;;2.58;;
46322;SDS011;32044;52.386;13.278;2022-08-30T04:07:51;3.10;;;2.80;;
46322;SDS011;32044;52.386;13.278;2022-08-30T04:10:16;2.90;;;2.60;;
46322;SDS011;32044;52.386;13.278;2022-08-30T04:12:41;3.40;;;2.90;;
46322;SDS011;32044;52.386;13.278;2022-08-30T04:15:07;2.63;;;2.42;;
46322;SDS011;32044;52.386;13.278;2022-08-30T04:17:34;4.03;;;3.08;;
46322;SDS011;32044;52.386;13.278;2022-08-30T04:19:59;4.65;;;3.55;;
46322;SDS011;32044;52.386;13.278;2022-08-30T04:22:24;3.72;;;3.25;;
46322;SDS011;32044;52.386;13.278;2022-08-30T04:24:50;4.07;;;3.60;;
46322;SDS011;32044;52.386;13.278;2022-08-30T04:27:15;3.90;;;3.50;;
46322;SDS011;32044;52.386;13.278;2022-08-30T04:29:44;3.92;;;3.38;;
46322;SDS011;32044;52.386;13.278;2022-08-30T04:32:09;4.65;;;3.63;;
46322;SDS011;32044;52.386;13.278;2022-08-30T04:34:35;4.38;;;3.60;;
46322;SDS011;32044;52.386;13.278;2022-08-30T04:37:00;3.95;;;3.63;;
46322;SDS011;32044;52.386;13.278;2022-08-30T04:39:25;5.60;;;3.38;;
46322;SDS011;32044;52.386;13.278;2022-08-30T04:41:50;5.25;;;3.60;;
46322;SDS011;32044;52.386;13.278;2022-08-30T04:44:16;3.72;;;2.95;;
46322;SDS011;32044;52.386;13.278;2022-08-30T04:46:41;3.92;;;3.53;;
46322;SDS011;32044;52.386;13.278;2022-08-30T04:49:06;4.10;;;3.67;;
46322;SDS011;32044;52.386;13.278;2022-08-30T04:51:32;6.43;;;3.67;;
46322;SDS011;32044;52.386;13.278;2022-08-30T04:53:57;4.50;;;3.78;;
46322;SDS011;32044;52.386;13.278;2022-08-30T04:56:22;6.28;;;3.80;;
46322;SDS011;32044;52.386;13.278;2022-08-30T04:58:49;4.40;;;3.40;;
46322;SDS011;32044;52.386;13.278;2022-08-30T05:01:17;4.03;;;2.88;;
46322;SDS011;32044;52.386;13.278;2022-08-30T05:03:47;3.45;;;3.05;;
46322;SDS011;32044;52.386;13.278;2022-08-30T05:06:13;3.67;;;2.60;;
46322;SDS011;32044;52.386;13.278;2022-08-30T05:08:39;2.90;;;2.40;;
46322;SDS011;32044;52.386;13.278;2022-08-30T05:11:05;3.30;;;3.00;;
46322;SDS011;32044;52.386;13.278;2022-08-30T05:13:31;3.88;;;2.60;;
46322;SDS011;32044;52.386;13.278;2022-08-30T05:15:57;2.40;;;2.20;;
46322;SDS011;32044;52.386;13.278;2022-08-30T05:18:24;3.33;;;2.60;;
46322;SDS011;32044;52.386;13.278;2022-08-30T05:20:49;4.65;;;4.22;;
46322;SDS011;32044;52.386;13.278;2022-08-30T05:23:14;3.83;;;3.38;;
46322;SDS011;32044;52.386;13.278;2022-08-30T05:25:40;5.18;;;3.60;;
46322;SDS011;32044;52.386;13.278;2022-08-30T05:28:06;4.30;;;3.90;;
46322;SDS011;32044;52.386;13.278;2022-08-30T05:30:33;5.00;;;4.13;;
46322;SDS011;32044;52.386;13.278;2022-08-30T05:32:59;3.50;;;3.20;;
46322;SDS011;32044;52.386;13.278;2022-08-30T05:35:24;5.45;;;4.18;;
46322;SDS011;32044;52.386;13.278;2022-08-30T05:37:49;4.50;;;4.10;;
46322;SDS011;32044;52.386;13.278;2022-08-30T05:40:15;3.92;;;3.47;;
46322;SDS011;32044;52.386;13.278;2022-08-30T05:42:41;4.15;;;3.75;;
46322;SDS011;32044;52.386;13.278;2022-08-30T05:45:08;5.72;;;4.82;;
46322;SDS011;32044;52.386;13.278;2022-08-30T05:47:33;5.82;;;4.97;;
46322;SDS011;32044;52.386;13.278;2022-08-30T05:49:59;5.88;;;5.28;;
46322;SDS011;32044;52.386;13.278;2022-08-30T05:52:25;8.52;;;7.03;;
46322;SDS011;32044;52.386;13.278;2022-08-30T05:54:51;9.13;;;7.75;;
46322;SDS011;32044;52.386;13.278;2022-08-30T05:57:17;9.32;;;8.10;;
46322;SDS011;32044;52.386;13.278;2022-08-30T05:59:43;10.40;;;8.30;;
46322;SDS011;32044;52.386;13.278;2022-08-30T06:02:08;7.70;;;6.90;;
46322;SDS011;32044;52.386;13.278;2022-08-30T06:04:33;8.75;;;7.82;;
46322;SDS011;32044;52.386;13.278;2022-08-30T06:07:00;11.32;;;9.68;;
46322;SDS011;32044;52.386;13.278;2022-08-30T06:09:26;13.95;;;10.50;;
46322;SDS011;32044;52.386;13.278;2022-08-30T06:11:51;9.93;;;9.00;;
46322;SDS011;32044;52.386;13.278;2022-08-30T06:14:16;12.20;;;10.88;;
46322;SDS011;32044;52.386;13.278;2022-08-30T06:16:42;13.48;;;12.07;;
46322;SDS011;32044;52.386;13.278;2022-08-30T06:19:09;10.52;;;9.43;;
46322;SDS011;32044;52.386;13.278;2022-08-30T06:21:35;12.05;;;8.38;;
46322;SDS011;32044;52.386;13.278;2022-08-30T06:24:01;10.88;;;9.88;;
46322;SDS011;32044;52.386;13.278;2022-08-30T06:26:28;10.23;;;8.43;;
46322;SDS011;32044;52.386;13.278;2022-08-30T06:28:54;13.43;;;11.23;;
46322;SDS011;32044;52.386;13.278;2022-08-30T06:31:20;15.02;;;10.63;;
46322;SDS011;32044;52.386;13.278;2022-08-30T06:33:46;13.52;;;11.55;;
46322;SDS011;32044;52.386;13.278;2022-08-30T06:36:13;9.88;;;8.25;;
46322;SDS011;32044;52.386;13.278;2022-08-30T06:38:40;9.85;;;8.88;;
46322;SDS011;32044;52.386;13.278;2022-08-30T06:41:06;7.93;;;7.20;;
46322;SDS011;32044;52.386;13.278;2022-08-30T06:43:33;7.45;;;6.50;;
46322;SDS011;32044;52.386;13.278;2022-08-30T06:46:02;8.85;;;7.85;;
46322;SDS011;32044;52.386;13.278;2022-08-30T06:48:28;7.93;;;7.20;;
46322;SDS011;32044;52.386;13.278;2022-08-30T06:50:54;8.68;;;7.78;;
46322;SDS011;32044;52.386;13.278;2022-08-30T06:53:19;10.15;;;8.18;;
46322;SDS011;32044;52.386;13.278;2022-08-30T06:55:44;8.07;;;7.28;;
46322;SDS011;32044;52.386;13.278;2022-08-30T06:58:10;8.88;;;6.68;;
46322;SDS011;32044;52.386;13.278;2022-08-30T07:00:35;7.70;;;7.00;;
46322;SDS011;32044;52.386;13.278;2022-08-30T07:03:00;5.95;;;5.18;;
46322;SDS011;32044;52.386;13.278;2022-08-30T07:05:26;8.88;;;5.75;;
46322;SDS011;32044;52.386;13.278;2022-08-30T07:07:52;6.20;;;5.25;;
46322;SDS011;32044;52.386;13.278;2022-08-30T07:10:18;9.07;;;6.05;;
46322;SDS011;32044;52.386;13.278;2022-08-30T07:12:45;6.72;;;6.03;;
46322;SDS011;32044;52.386;13.278;2022-08-30T07:15:10;6.40;;;5.25;;
46322;SDS011;32044;52.386;13.278;2022-08-30T07:17:36;5.18;;;4.78;;
46322;SDS011;32044;52.386;13.278;2022-08-30T07:20:20;5.05;;;4.55;;
46322;SDS011;32044;52.386;13.278;2022-08-30T07:22:46;5.85;;;4.95;;
46322;SDS011;32044;52.386;13.278;2022-08-30T07:25:12;6.97;;;4.30;;
46322;SDS011;32044;52.386;13.278;2022-08-30T07:27:38;5.82;;;4.35;;
46322;SDS011;32044;52.386;13.278;2022-08-30T07:30:04;6.90;;;3.55;;
46322;SDS011;32044;52.386;13.278;2022-08-30T07:32:30;3.30;;;2.42;;
46322;SDS011;32044;52.386;13.278;2022-08-30T07:34:56;2.35;;;2.15;;
46322;SDS011;32044;52.386;13.278;2022-08-30T07:37:21;3.33;;;2.10;;
46322;SDS011;32044;52.386;13.278;2022-08-30T07:39:46;3.33;;;2.03;;
46322;SDS011;32044;52.386;13.278;2022-08-30T07:42:12;3.75;;;2.80;;
46322;SDS011;32044;52.386;13.278;2022-08-30T07:44:37;4.50;;;2.40;;
46322;SDS011;32044;52.386;13.278;2022-08-30T07:47:02;2.92;;;2.72;;
46322;SDS011;32044;52.386;13.278;2022-08-30T07:49:28;3.08;;;2.75;;
46322;SDS011;32044;52.386;13.278;2022-08-30T07:51:53;2.90;;;2.70;;
46322;SDS011;32044;52.386;13.278;2022-08-30T07:54:18;2.85;;;2.40;;
46322;SDS011;32044;52.386;13.278;2022-08-30T07:56:44;4.97;;;3.20;;
46322;SDS011;32044;52.386;13.278;2022-08-30T07:59:09;4.38;;;3.05;;
46322;SDS011;32044;52.386;13.278;2022-08-30T08:01:34;3.72;;;2.85;;
46322;SDS011;32044;52.386;13.278;2022-08-30T08:04:00;3.13;;;2.70;;
46322;SDS011;32044;52.386;13.278;2022-08-30T08:06:25;2.83;;;2.38;;
46322;SDS011;32044;52.386;13.278;2022-08-30T08:08:51;2.45;;;2.10;;
46322;SDS011;32044;52.386;13.278;2022-08-30T08:11:19;3.30;;;2.15;;
46322;SDS011;32044;52.386;13.278;2022-08-30T08:13:45;4.25;;;2.45;;
46322;SDS011;32044;52.386;13.278;2022-08-30T08:16:12;5.18;;;2.50;;
46322;SDS011;32044;52.386;13.278;2022-08-30T08:18:37;5.15;;;3.10;;
46322;SDS011;32044;52.386;13.278;2022-08-30T08:21:02;4.18;;;3.17;;
46322;SDS011;32044;52.386;13.278;2022-08-30T08:23:28;4.35;;;3.47;;
46322;SDS011;32044;52.386;13.278;2022-08-30T08:25:53;4.55;;;3.47;;
46322;SDS011;32044;52.386;13.278;2022-08-30T08:28:19;2.53;;;2.20;;
46322;SDS011;32044;52.386;13.278;2022-08-30T08:30:44;2.38;;;2.10;;
46322;SDS011;32044;52.386;13.278;2022-08-30T08:33:10;2.40;;;2.20;;
46322;SDS011;32044;52.386;13.278;2022-08-30T08:35:37;3.38;;;2.42;;
46322;SDS011;32044;52.386;13.278;2022-08-30T08:38:02;5.03;;;3.10;;
46322;SDS011;32044;52.386;13.278;2022-08-30T08:40:28;4.68;;;3.33;;
46322;SDS011;32044;52.386;13.278;2022-08-30T08:42:58;3.47;;;3.17;;
46322;SDS011;32044;52.386;13.278;2022-08-30T08:48:02;5.68;;;3.70;;
46322;SDS011;32044;52.386;13.278;2022-08-30T08:50:30;3.88;;;2.67;;
46322;SDS011;32044;52.386;13.278;2022-08-30T08:53:03;3.58;;;2.90;;
46322;SDS011;32044;52.386;13.278;2022-08-30T08:55:50;4.32;;;3.92;;
46322;SDS011;32044;52.386;13.278;2022-08-30T08:58:21;4.07;;;3.75;;
46322;SDS011;32044;52.386;13.278;2022-08-30T09:00:49;5.47;;;4.97;;
46322;SDS011;32044;52.386;13.278;2022-08-30T09:03:14;6.22;;;5.00;;
46322;SDS011;32044;52.386;13.278;2022-08-30T09:05:40;5.18;;;4.78;;
46322;SDS011;32044;52.386;13.278;2022-08-30T09:08:09;5.10;;;4.60;;
46322;SDS011;32044;52.386;13.278;2022-08-30T09:10:38;5.38;;;4.93;;
46322;SDS011;32044;52.386;13.278;2022-08-30T09:13:04;6.63;;;5.13;;
46322;SDS011;32044;52.386;13.278;2022-08-30T09:15:30;6.13;;;5.32;;
46322;SDS011;32044;52.386;13.278;2022-08-30T09:18:06;5.32;;;4.82;;
46322;SDS011;32044;52.386;13.278;2022-08-30T09:20:42;5.75;;;5.25;;
46322;SDS011;32044;52.386;13.278;2022-08-30T09:25:39;7.78;;;5.38;;
46322;SDS011;32044;52.386;13.278;2022-08-30T09:28:19;8.43;;;5.65;;
46322;SDS011;32044;52.386;13.278;2022-08-30T09:31:29;6.32;;;5.40;;
46322;SDS011;32044;52.386;13.278;2022-08-30T09:33:55;8.60;;;5.75;;
46322;SDS011;32044;52.386;13.278;2022-08-30T09:36:44;6.22;;;5.63;;
46322;SDS011;32044;52.386;13.278;2022-08-30T09:39:17;6.07;;;5.38;;
46322;SDS011;32044;52.386;13.278;2022-08-30T09:42:10;4.80;;;4.40;;
46322;SDS011;32044;52.386;13.278;2022-08-30T09:44:49;6.78;;;5.05;;
46322;SDS011;32044;52.386;13.278;2022-08-30T09:47:22;5.45;;;4.15;;
46322;SDS011;32044;52.386;13.278;2022-08-30T09:50:06;4.78;;;4.15;;
46322;SDS011;32044;52.386;13.278;2022-08-30T09:55:30;5.38;;;3.83;;
46322;SDS011;32044;52.386;13.278;2022-08-30T10:00:51;6.07;;;3.47;;
46322;SDS011;32044;52.386;13.278;2022-08-30T10:03:30;4.10;;;3.08;;
46322;SDS011;32044;52.386;13.278;2022-08-30T10:11:26;4.93;;;2.58;;
46322;SDS011;32044;52.386;13.278;2022-08-30T10:17:05;3.08;;;2.78;;
46322;SDS011;32044;52.386;13.278;2022-08-30T10:22:23;2.85;;;2.08;;
46322;SDS011;32044;52.386;13.278;2022-08-30T10:24:54;2.75;;;2.35;;
46322;SDS011;32044;52.386;13.278;2022-08-30T10:27:28;4.90;;;2.38;;
46322;SDS011;32044;52.386;13.278;2022-08-30T10:30:05;4.00;;;2.20;;
46322;SDS011;32044;52.386;13.278;2022-08-30T10:32:33;5.03;;;1.90;;
46322;SDS011;32044;52.386;13.278;2022-08-30T10:35:06;2.17;;;1.98;;
46322;SDS011;32044;52.386;13.278;2022-08-30T10:38:05;3.50;;;2.10;;
46322;SDS011;32044;52.386;13.278;2022-08-30T10:40:35;2.00;;;1.80;;
46322;SDS011;32044;52.386;13.278;2022-08-30T10:46:24;3.95;;;1.55;;
46322;SDS011;32044;52.386;13.278;2022-08-30T10:48:58;3.75;;;1.40;;
46322;SDS011;32044;52.386;13.278;2022-08-30T10:51:31;1.75;;;1.30;;
46322;SDS011;32044;52.386;13.278;2022-08-30T10:54:10;1.58;;;1.25;;
46322;SDS011;32044;52.386;13.278;2022-08-30T10:56:39;1.90;;;1.50;;
46322;SDS011;32044;52.386;13.278;2022-08-30T10:59:06;5.80;;;1.30;;
46322;SDS011;32044;52.386;13.278;2022-08-30T11:01:35;4.00;;;1.52;;
46322;SDS011;32044;52.386;13.278;2022-08-30T11:10:00;3.65;;;1.48;;
46322;SDS011;32044;52.386;13.278;2022-08-30T11:12:34;1.40;;;1.30;;
46322;SDS011;32044;52.386;13.278;2022-08-30T11:15:11;3.10;;;1.60;;
46322;SDS011;32044;52.386;13.278;2022-08-30T11:17:42;2.88;;;1.33;;
46322;SDS011;32044;52.386;13.278;2022-08-30T11:26:01;1.98;;;1.38;;
46322;SDS011;32044;52.386;13.278;2022-08-30T11:31:10;1.40;;;1.30;;
46322;SDS011;32044;52.386;13.278;2022-08-30T11:33:40;1.63;;;1.50;;
46322;SDS011;32044;52.386;13.278;2022-08-30T11:44:13;1.67;;;1.58;;
46322;SDS011;32044;52.386;13.278;2022-08-30T11:46:53;2.00;;;1.40;;
46322;SDS011;32044;52.386;13.278;2022-08-30T11:51:54;2.90;;;1.80;;
46322;SDS011;32044;52.386;13.278;2022-08-30T12:08:03;2.53;;;1.70;;
46322;SDS011;32044;52.386;13.278;2022-08-30T12:10:35;1.90;;;1.80;;
46322;SDS011;32044;52.386;13.278;2022-08-30T12:13:09;2.00;;;1.73;;
46322;SDS011;32044;52.386;13.278;2022-08-30T12:16:20;2.92;;;1.83;;
46322;SDS011;32044;52.386;13.278;2022-08-30T12:18:48;3.05;;;1.85;;
46322;SDS011;32044;52.386;13.278;2022-08-30T12:28:48;3.35;;;1.83;;
46322;SDS011;32044;52.386;13.278;2022-08-30T12:31:16;1.95;;;1.80;;
46322;SDS011;32044;52.386;13.278;2022-08-30T12:33:45;1.77;;;1.50;;
46322;SDS011;32044;52.386;13.278;2022-08-30T12:36:14;2.63;;;1.73;;
46322;SDS011;32044;52.386;13.278;2022-08-30T12:39:03;2.13;;;1.70;;
46322;SDS011;32044;52.386;13.278;2022-08-30T12:41:29;2.15;;;1.85;;
46322;SDS011;32044;52.386;13.278;2022-08-30T12:43:54;2.42;;;1.55;;
46322;SDS011;32044;52.386;13.278;2022-08-30T12:46:20;2.13;;;1.65;;
46322;SDS011;32044;52.386;13.278;2022-08-30T12:48:45;1.70;;;1.60;;
46322;SDS011;32044;52.386;13.278;2022-08-30T12:51:25;1.52;;;1.42;;
46322;SDS011;32044;52.386;13.278;2022-08-30T12:53:52;1.60;;;1.50;;
46322;SDS011;32044;52.386;13.278;2022-08-30T12:56:17;1.75;;;1.58;;
46322;SDS011;32044;52.386;13.278;2022-08-30T13:04:01;1.58;;;1.48;;
46322;SDS011;32044;52.386;13.278;2022-08-30T13:09:04;1.45;;;1.35;;
46322;SDS011;32044;52.386;13.278;2022-08-30T13:11:29;2.13;;;1.40;;
46322;SDS011;32044;52.386;13.278;2022-08-30T13:20:00;1.55;;;1.45;;
46322;SDS011;32044;52.386;13.278;2022-08-30T13:22:31;1.45;;;1.35;;
46322;SDS011;32044;52.386;13.278;2022-08-30T13:24:58;1.40;;;1.27;;
46322;SDS011;32044;52.386;13.278;2022-08-30T13:27:24;2.22;;;1.40;;
46322;SDS011;32044;52.386;13.278;2022-08-30T13:29:50;1.63;;;1.20;;
46322;SDS011;32044;52.386;13.278;2022-08-30T13:32:16;1.52;;;1.35;;
46322;SDS011;32044;52.386;13.278;2022-08-30T13:34:41;1.50;;;1.40;;
46322;SDS011;32044;52.386;13.278;2022-08-30T13:37:08;1.67;;;1.20;;
46322;SDS011;32044;52.386;13.278;2022-08-30T13:39:34;2.58;;;1.50;;
46322;SDS011;32044;52.386;13.278;2022-08-30T13:42:00;2.70;;;1.30;;
46322;SDS011;32044;52.386;13.278;2022-08-30T13:44:25;3.60;;;1.60;;
46322;SDS011;32044;52.386;13.278;2022-08-30T13:46:51;2.42;;;1.45;;
46322;SDS011;32044;52.386;13.278;2022-08-30T13:49:19;3.78;;;1.25;;
46322;SDS011;32044;52.386;13.278;2022-08-30T13:51:46;2.33;;;1.52;;
46322;SDS011;32044;52.386;13.278;2022-08-30T13:54:12;2.00;;;1.33;;
46322;SDS011;32044;52.386;13.278;2022-08-30T13:56:38;1.85;;;1.13;;
46322;SDS011;32044;52.386;13.278;2022-08-30T13:59:03;1.85;;;1.10;;
46322;SDS011;32044;52.386;13.278;2022-08-30T14:01:29;1.67;;;1.23;;
46322;SDS011;32044;52.386;13.278;2022-08-30T14:03:55;1.10;;;1.00;;
46322;SDS011;32044;52.386;13.278;2022-08-30T14:06:20;1.48;;;1.17;;
46322;SDS011;32044;52.386;13.278;2022-08-30T14:08:46;1.58;;;1.33;;
46322;SDS011;32044;52.386;13.278;2022-08-30T14:11:11;4.20;;;1.40;;
46322;SDS011;32044;52.386;13.278;2022-08-30T14:13:39;2.40;;;1.45;;
46322;SDS011;32044;52.386;13.278;2022-08-30T14:16:07;2.85;;;1.95;;
46322;SDS011;32044;52.386;13.278;2022-08-30T14:18:32;2.50;;;1.50;;
46322;SDS011;32044;52.386;13.278;2022-08-30T14:20:57;1.70;;;1.60;;
46322;SDS011;32044;52.386;13.278;2022-08-30T14:23:24;4.22;;;2.45;;
46322;SDS011;32044;52.386;13.278;2022-08-30T14:25:49;2.80;;;2.25;;
46322;SDS011;32044;52.386;13.278;2022-08-30T14:28:16;1.85;;;1.75;;
46322;SDS011;32044;52.386;13.278;2022-08-30T14:30:41;3.13;;;2.17;;
46322;SDS011;32044;52.386;13.278;2022-08-30T14:33:07;4.15;;;2.10;;
46322;SDS011;32044;52.386;13.278;2022-08-30T14:35:32;3.00;;;1.75;;
46322;SDS011;32044;52.386;13.278;2022-08-30T14:37:57;2.10;;;1.90;;
46322;SDS011;32044;52.386;13.278;2022-08-30T14:40:23;4.32;;;2.30;;
46322;SDS011;32044;52.386;13.278;2022-08-30T14:42:48;2.90;;;2.00;;
46322;SDS011;32044;52.386;13.278;2022-08-30T14:45:14;3.03;;;2.00;;
46322;SDS011;32044;52.386;13.278;2022-08-30T14:47:39;2.13;;;1.92;;
46322;SDS011;32044;52.386;13.278;2022-08-30T14:50:05;4.93;;;2.47;;
46322;SDS011;32044;52.386;13.278;2022-08-30T14:52:31;2.58;;;2.30;;
46322;SDS011;32044;52.386;13.278;2022-08-30T14:54:57;3.25;;;2.22;;
46322;SDS011;32044;52.386;13.278;2022-08-30T14:57:23;2.53;;;2.10;;
46322;SDS011;32044;52.386;13.278;2022-08-30T14:59:48;2.45;;;2.22;;
46322;SDS011;32044;52.386;13.278;2022-08-30T15:02:14;3.28;;;2.58;;
46322;SDS011;32044;52.386;13.278;2022-08-30T15:04:40;4.18;;;2.33;;
46322;SDS011;32044;52.386;13.278;2022-08-30T15:07:05;2.50;;;2.30;;
46322;SDS011;32044;52.386;13.278;2022-08-30T15:09:30;2.97;;;2.50;;
46322;SDS011;32044;52.386;13.278;2022-08-30T15:11:56;3.17;;;2.08;;
46322;SDS011;32044;52.386;13.278;2022-08-30T15:14:23;3.78;;;2.13;;
46322;SDS011;32044;52.386;13.278;2022-08-30T15:16:49;2.60;;;2.13;;
46322;SDS011;32044;52.386;13.278;2022-08-30T15:19:14;3.20;;;2.03;;
46322;SDS011;32044;52.386;13.278;2022-08-30T15:21:41;2.53;;;2.28;;
46322;SDS011;32044;52.386;13.278;2022-08-30T15:24:09;4.32;;;2.60;;
46322;SDS011;32044;52.386;13.278;2022-08-30T15:26:36;3.35;;;2.33;;
46322;SDS011;32044;52.386;13.278;2022-08-30T15:29:05;4.18;;;2.50;;
46322;SDS011;32044;52.386;13.278;2022-08-30T15:31:32;4.93;;;2.50;;
46322;SDS011;32044;52.386;13.278;2022-08-30T15:33:57;3.58;;;2.30;;
46322;SDS011;32044;52.386;13.278;2022-08-30T15:36:23;5.25;;;2.30;;
46322;SDS011;32044;52.386;13.278;2022-08-30T15:38:50;5.20;;;2.47;;
46322;SDS011;32044;52.386;13.278;2022-08-30T15:41:16;2.42;;;2.22;;
46322;SDS011;32044;52.386;13.278;2022-08-30T15:43:41;4.03;;;2.60;;
46322;SDS011;32044;52.386;13.278;2022-08-30T15:46:14;5.28;;;2.65;;
46322;SDS011;32044;52.386;13.278;2022-08-30T15:48:42;3.13;;;2.55;;
46322;SDS011;32044;52.386;13.278;2022-08-30T15:51:08;2.58;;;2.38;;
46322;SDS011;32044;52.386;13.278;2022-08-30T15:53:33;2.88;;;2.55;;
46322;SDS011;32044;52.386;13.278;2022-08-30T15:55:59;2.58;;;2.38;;
46322;SDS011;32044;52.386;13.278;2022-08-30T15:58:24;3.03;;;2.72;;
46322;SDS011;32044;52.386;13.278;2022-08-30T16:00:50;4.35;;;3.10;;